Barlby, United Kingdom
Current Conditions -  °F | °C
As of 12:50 PM on Thursday 27 Nov 2014 (Local Time) from EGXU Reporting Station
Drizzle Drizzle  
Wind Chill:   Ceiling: 200
Heat Index:   Visibility: 0.43mi
Dew Point:   Wind: 3mph
Humidity: 100%   Direction: 100°E
Pressure: 29.56"   Gusts: NA
Location:  53.8°N, 1.04°W
Report Text: EGXU 271250Z 10003KT 0700 -DZ OVC002 08/08 Q1001 RED TEMPO OVC001 RED
Loading
Personal Weather Stations






























Interactive Weather Map New forecast layout! Learn more

10-Day Weather Forecast

Advertisements
Track Severe Weather on mobile